Time;durP1;ratioP1;P1;durP2;ratioP2;P2;SDS_P1;SDS_P2;PMS_P1;PMS_P2;Temp;Humidity;BMP_temperature;BMP_pressure;BME280_temperature;BME280_humidity;BME280_pressure;Samples;Min_cycle;Max_cycle;Signal;HPM_P1;HPM_P2
2021/09/11 00:00:36;;;;;;;1999.90;999.90;;;;;;;12.87;64.99;95923.72;5008719;28;20203;-71
2021/09/11 00:03:04;;;;;;;1999.90;999.90;;;;;;;12.58;67.55;95923.34;5009162;28;20226;-70
2021/09/11 00:05:33;;;;;;;1999.90;999.90;;;;;;;12.32;68.84;95932.75;5009363;28;20616;-70
2021/09/11 00:08:00;;;;;;;1999.90;999.90;;;;;;;12.15;69.03;95928.19;5041658;28;20254;-69
2021/09/11 00:10:29;;;;;;;1999.90;999.90;;;;;;;12.10;69.60;95920.47;5048768;28;20205;-70
2021/09/11 00:12:56;;;;;;;1999.90;999.90;;;;;;;12.11;70.04;95921.97;5049050;28;20196;-71
2021/09/11 00:15:25;;;;;;;1999.90;999.90;;;;;;;11.99;70.28;95924.31;5048700;28;20435;-70
2021/09/11 00:17:52;;;;;;;1999.90;999.90;;;;;;;12.03;70.09;95922.69;5048696;28;20197;-70
2021/09/11 00:20:20;;;;;;;1999.90;999.90;;;;;;;11.99;71.30;95919.13;5048757;28;20201;-70
2021/09/11 00:22:48;;;;;;;1999.90;999.90;;;;;;;11.63;72.35;95917.16;5048604;28;20703;-69
2021/09/11 00:25:17;;;;;;;1999.90;999.90;;;;;;;11.50;73.62;95923.16;5048890;28;20637;-70
2021/09/11 00:27:44;;;;;;;1999.90;999.90;;;;;;;11.29;75.39;95918.56;5048665;28;20201;-70
2021/09/11 00:30:12;;;;;;;1999.90;999.90;;;;;;;11.23;76.03;95929.06;5048859;28;20200;-70
2021/09/11 00:32:43;;;;;;;1999.90;999.90;;;;;;;11.20;76.06;95921.84;5048575;28;20197;-69
2021/09/11 00:35:12;;;;;;;1999.90;999.90;;;;;;;11.16;76.76;95926.06;5048650;28;20186;-70
2021/09/11 00:37:39;;;;;;;1999.90;999.90;;;;;;;11.06;77.75;95931.41;5048808;28;20271;-69
2021/09/11 00:40:09;;;;;;;1999.90;999.90;;;;;;;11.04;78.03;95938.75;5048899;28;20201;-69
2021/09/11 00:42:37;;;;;;;1999.90;999.90;;;;;;;10.93;78.42;95932.16;5048325;28;20231;-70
2021/09/11 00:45:05;;;;;;;1999.90;999.90;;;;;;;10.86;78.07;95934.34;5048819;28;20197;-70
2021/09/11 00:47:32;;;;;;;1999.90;999.90;;;;;;;10.60;79.16;95930.59;5048743;28;20591;-70
2021/09/11 00:50:00;;;;;;;1999.90;999.90;;;;;;;10.50;79.45;95933.34;5048522;28;20201;-69
2021/09/11 00:52:27;;;;;;;1999.90;999.90;;;;;;;10.59;79.87;95927.22;5048322;28;20193;-69
2021/09/11 00:54:55;;;;;;;1999.90;999.90;;;;;;;10.62;80.89;95923.28;5048340;28;20296;-68
2021/09/11 00:57:24;;;;;;;1999.90;999.90;;;;;;;10.62;80.88;95923.28;5048693;28;20208;-70
2021/09/11 00:59:51;;;;;;;1999.90;999.90;;;;;;;10.46;80.94;95922.72;5048436;28;20208;-69
2021/09/11 01:02:18;;;;;;;1999.90;999.90;;;;;;;10.27;81.96;95924.53;5048181;28;20232;-70
2021/09/11 01:04:45;;;;;;;1999.90;999.90;;;;;;;10.21;81.87;95930.88;5048397;28;20727;-71
2021/09/11 01:07:12;;;;;;;1999.90;999.90;;;;;;;10.09;82.40;95936.44;5038768;28;20292;-70
2021/09/11 01:09:40;;;;;;;1999.90;999.90;;;;;;;10.07;81.95;95933.31;5028462;28;20198;-69
2021/09/11 01:12:08;;;;;;;1999.90;999.90;;;;;;;9.92;83.13;95928.31;5031829;28;20205;-70
2021/09/11 01:14:37;;;;;;;1999.90;999.90;;;;;;;9.87;83.71;95933.56;5032140;28;20583;-69
2021/09/11 01:17:05;;;;;;;1999.90;999.90;;;;;;;9.90;83.84;95938.22;5031868;28;20430;-70
2021/09/11 01:19:32;;;;;;;1999.90;999.90;;;;;;;9.94;83.16;95928.81;5032067;28;20238;-69
2021/09/11 01:21:59;;;;;;;1999.90;999.90;;;;;;;9.83;84.29;95935.19;5031883;28;20194;-70
2021/09/11 01:24:27;;;;;;;1999.90;999.90;;;;;;;9.87;84.11;95938.75;5031795;28;20213;-69
2021/09/11 01:26:55;;;;;;;1999.90;999.90;;;;;;;9.91;83.41;95935.31;5031834;28;20202;-69
2021/09/11 01:29:22;;;;;;;1999.90;999.90;;;;;;;9.99;82.82;95925.41;5031837;28;20198;-69
2021/09/11 01:31:49;;;;;;;1999.90;999.90;;;;;;;9.98;82.63;95932.41;5031801;28;20194;-70
2021/09/11 01:34:16;;;;;;;1999.90;999.90;;;;;;;9.90;83.23;95938.22;5032276;28;20596;-69
2021/09/11 01:36:43;;;;;;;1999.90;999.90;;;;;;;9.72;83.70;95934.50;5031829;28;20198;-70
2021/09/11 01:39:12;;;;;;;1999.90;999.90;;;;;;;9.90;83.65;95943.41;5031884;28;20206;-69
2021/09/11 01:41:40;;;;;;;1999.90;999.90;;;;;;;9.74;82.97;95937.63;5031527;28;20287;-69
2021/09/11 01:44:07;;;;;;;1999.90;999.90;;;;;;;9.62;84.39;95941.63;5031781;28;20244;-69
2021/09/11 01:46:34;;;;;;;1999.90;999.90;;;;;;;9.73;84.02;95941.25;5031538;28;20224;-70
2021/09/11 01:49:02;;;;;;;1999.90;999.90;;;;;;;9.58;84.66;95935.44;5031220;28;20576;-70
2021/09/11 01:51:29;;;;;;;1999.90;999.90;;;;;;;9.49;84.30;95930.88;5031671;28;20205;-69
2021/09/11 01:53:56;;;;;;;1999.90;999.90;;;;;;;9.56;84.14;95922.00;5028069;28;21519;-67
2021/09/11 01:56:23;;;;;;;1999.90;999.90;;;;;;;9.59;84.58;95929.22;5031305;28;20205;-67
2021/09/11 01:58:52;;;;;;;1999.90;999.90;;;;;;;9.65;84.19;95921.09;5031077;28;21053;-68
2021/09/11 02:01:19;;;;;;;1999.90;999.90;;;;;;;9.60;83.98;95928.19;5028763;28;20209;-67
2021/09/11 02:03:46;;;;;;;1999.90;999.90;;;;;;;9.46;85.10;95936.59;5028663;28;20603;-67
2021/09/11 02:06:13;;;;;;;1999.90;999.90;;;;;;;9.21;85.66;95931.66;5029112;28;20356;-68
2021/09/11 02:08:40;;;;;;;1999.90;999.90;;;;;;;9.03;85.25;95933.09;5031164;28;20202;-69
2021/09/11 02:11:07;;;;;;;1999.90;999.90;;;;;;;8.93;85.46;95932.41;5029915;28;20547;-68
2021/09/11 02:13:34;;;;;;;1999.90;999.90;;;;;;;8.94;85.43;95926.19;5029722;28;20204;-68
2021/09/11 02:16:03;;;;;;;1999.90;999.90;;;;;;;8.87;86.41;95926.50;5030896;28;20637;-69
2021/09/11 02:18:30;;;;;;;1999.90;999.90;;;;;;;8.93;86.33;95930.59;5030765;28;20271;-69
2021/09/11 02:20:58;;;;;;;1999.90;999.90;;;;;;;9.01;86.25;95921.47;5030670;28;20248;-69
2021/09/11 02:23:25;;;;;;;1999.90;999.90;;;;;;;9.06;86.38;95924.81;5030094;28;20321;-70
2021/09/11 02:25:52;;;;;;;1999.90;999.90;;;;;;;9.10;86.53;95922.44;5030472;28;20295;-68
2021/09/11 02:28:19;;;;;;;1999.90;999.90;;;;;;;9.06;85.71;95924.03;5030650;28;20201;-68
2021/09/11 02:30:46;;;;;;;1999.90;999.90;;;;;;;8.99;86.33;95923.56;5030574;28;20204;-68
2021/09/11 02:33:15;;;;;;;1999.90;999.90;;;;;;;9.01;87.40;95926.66;5030503;28;20208;-68
2021/09/11 02:35:42;;;;;;;1999.90;999.90;;;;;;;9.02;86.44;95920.41;5030344;28;20194;-68
2021/09/11 02:38:09;;;;;;;1999.90;999.90;;;;;;;9.00;86.88;95922.50;5030618;28;20200;-68
2021/09/11 02:40:36;;;;;;;1999.90;999.90;;;;;;;8.92;86.60;95923.06;5030791;28;20197;-68
2021/09/11 02:43:03;;;;;;;1999.90;999.90;;;;;;;8.80;87.18;95923.44;5030059;28;20233;-68
2021/09/11 02:45:31;;;;;;;1999.90;999.90;;;;;;;8.75;87.52;95926.06;5030676;28;20221;-68
2021/09/11 02:47:58;;;;;;;1999.90;999.90;;;;;;;8.81;88.20;95926.81;5030197;28;20674;-68
2021/09/11 02:50:27;;;;;;;1999.90;999.90;;;;;;;8.85;88.51;95922.63;5030273;28;20202;-69
2021/09/11 02:52:54;;;;;;;1999.90;999.90;;;;;;;8.79;88.80;95919.31;5030346;28;20745;-68
2021/09/11 02:55:21;;;;;;;1999.90;999.90;;;;;;;8.91;88.05;95924.16;5030172;28;20202;-68
2021/09/11 02:57:48;;;;;;;1999.90;999.90;;;;;;;8.89;87.61;95923.63;5030306;28;20405;-67
2021/09/11 03:00:15;;;;;;;1999.90;999.90;;;;;;;8.83;88.28;95924.72;5029290;28;20788;-67
2021/09/11 03:02:42;;;;;;;1999.90;999.90;;;;;;;8.80;88.31;95925.25;5029768;28;20688;-67
2021/09/11 03:05:10;;;;;;;1999.90;999.90;;;;;;;8.76;88.44;95925.03;5027898;28;20684;-66
2021/09/11 03:07:39;;;;;;;1999.90;999.90;;;;;;;8.78;87.81;95928.13;5029831;28;20316;-68
2021/09/11 03:10:07;;;;;;;1999.90;999.90;;;;;;;8.67;88.41;95933.66;5027453;28;20606;-68
2021/09/11 03:12:34;;;;;;;1999.90;999.90;;;;;;;8.72;88.38;95928.44;5025435;28;20762;-68
2021/09/11 03:15:01;;;;;;;1999.90;999.90;;;;;;;8.88;89.13;95924.66;5027203;28;20205;-68
2021/09/11 03:17:29;;;;;;;1999.90;999.90;;;;;;;8.97;87.30;95921.22;5029434;28;20198;-69
2021/09/11 03:19:56;;;;;;;1999.90;999.90;;;;;;;8.95;86.64;95919.97;5026821;28;20437;-69
2021/09/11 03:22:23;;;;;;;1999.90;999.90;;;;;;;8.92;87.20;95923.84;5015512;28;20316;-69
2021/09/11 03:24:52;;;;;;;1999.90;999.90;;;;;;;8.91;87.99;95921.56;5026389;28;20225;-69
2021/09/11 03:27:19;;;;;;;1999.90;999.90;;;;;;;8.93;87.81;95924.63;5026839;28;20206;-69
2021/09/11 03:29:46;;;;;;;1999.90;999.90;;;;;;;8.97;87.79;95931.59;5029125;28;20209;-69
2021/09/11 03:32:13;;;;;;;1999.90;999.90;;;;;;;8.98;87.37;95927.97;5029532;28;20212;-68
2021/09/11 03:34:40;;;;;;;1999.90;999.90;;;;;;;8.86;87.22;95922.38;5029575;28;20213;-69
2021/09/11 03:37:09;;;;;;;1999.90;999.90;;;;;;;8.70;86.62;95926.13;5029470;28;20267;-69
2021/09/11 03:39:37;;;;;;;1999.90;999.90;;;;;;;8.53;86.68;95929.06;5029253;28;20205;-68
2021/09/11 03:42:06;;;;;;;1999.90;999.90;;;;;;;8.47;86.72;95935.31;5028926;28;20197;-69
2021/09/11 03:44:33;;;;;;;1999.90;999.90;;;;;;;8.42;87.12;95945.69;5029351;28;20230;-70
2021/09/11 03:47:00;;;;;;;1999.90;999.90;;;;;;;8.29;87.06;95942.91;5029401;28;20213;-70
2021/09/11 03:49:27;;;;;;;1999.90;999.90;;;;;;;8.24;87.23;95941.13;5029224;28;20681;-69
2021/09/11 03:51:54;;;;;;;1999.90;999.90;;;;;;;8.11;87.49;95942.50;5029485;28;21016;-70
2021/09/11 03:54:21;;;;;;;1999.90;999.90;;;;;;;8.02;87.82;95943.31;5029243;28;20198;-70
2021/09/11 03:56:48;;;;;;;1999.90;999.90;;;;;;;8.01;87.42;95942.53;5029585;28;20578;-69
2021/09/11 03:59:17;;;;;;;1999.90;999.90;;;;;;;8.11;88.04;95946.88;5029010;28;20208;-69
2021/09/11 04:01:44;;;;;;;1999.90;999.90;;;;;;;8.15;88.03;95946.09;5029160;28;20205;-70
2021/09/11 04:04:11;;;;;;;1999.90;999.90;;;;;;;8.09;88.71;95946.38;5029249;28;20230;-70
2021/09/11 04:06:38;;;;;;;1999.90;999.90;;;;;;;7.98;88.21;95950.81;5028943;28;20625;-71
2021/09/11 04:09:05;;;;;;;1999.90;999.90;;;;;;;8.00;87.43;95953.13;5029006;28;20229;-70
2021/09/11 04:11:33;;;;;;;1999.90;999.90;;;;;;;7.92;86.78;95956.28;5029406;28;20202;-71
2021/09/11 04:14:00;;;;;;;1999.90;999.90;;;;;;;7.97;88.16;95954.44;5029107;28;20224;-70
2021/09/11 04:16:28;;;;;;;1999.90;999.90;;;;;;;7.86;89.12;95946.97;5028930;28;20206;-71
2021/09/11 04:18:55;;;;;;;1999.90;999.90;;;;;;;7.88;89.39;95953.44;5028842;28;20204;-70
2021/09/11 04:21:23;;;;;;;1999.90;999.90;;;;;;;7.85;90.16;95955.78;5028814;28;20251;-70
2021/09/11 04:23:50;;;;;;;1999.90;999.90;;;;;;;7.79;90.80;95958.38;5028821;28;20697;-69
2021/09/11 04:26:17;;;;;;;1999.90;999.90;;;;;;;7.82;91.71;95958.91;5028910;28;20209;-70
2021/09/11 04:28:44;;;;;;;1999.90;999.90;;;;;;;7.88;91.74;95965.59;5029213;28;20202;-70
2021/09/11 04:31:11;;;;;;;1999.90;999.90;;;;;;;7.96;91.40;95968.44;5029152;28;20205;-70
2021/09/11 04:33:40;;;;;;;1999.90;999.90;;;;;;;7.85;91.02;95969.50;5028735;28;20288;-70
2021/09/11 04:36:08;;;;;;;1999.90;999.90;;;;;;;7.73;90.77;95971.59;5028704;28;20616;-70
2021/09/11 04:38:36;;;;;;;1999.90;999.90;;;;;;;7.71;91.04;95961.53;5028978;28;20674;-71
2021/09/11 04:41:03;;;;;;;1999.90;999.90;;;;;;;8.00;91.54;95958.31;5029010;28;20202;-71
2021/09/11 04:43:30;;;;;;;1999.90;999.90;;;;;;;8.18;90.74;95968.06;5028626;28;20319;-71
2021/09/11 04:45:58;;;;;;;1999.90;999.90;;;;;;;8.24;89.69;95972.19;5030989;28;20202;-71
2021/09/11 04:48:25;;;;;;;1999.90;999.90;;;;;;;8.36;89.62;95961.56;5032713;28;20202;-71
2021/09/11 04:50:54;;;;;;;1999.90;999.90;;;;;;;8.49;89.66;95966.13;5033260;28;20812;-71
2021/09/11 04:53:21;;;;;;;1999.90;999.90;;;;;;;8.61;89.00;95964.00;5032612;28;20237;-70
2021/09/11 04:55:48;;;;;;;1999.90;999.90;;;;;;;8.74;89.02;95968.56;5032819;28;20288;-70
2021/09/11 04:58:15;;;;;;;1999.90;999.90;;;;;;;8.82;89.13;95962.03;5032359;28;20194;-70
2021/09/11 05:00:43;;;;;;;1999.90;999.90;;;;;;;8.90;89.97;95954.47;5032414;28;20197;-70
2021/09/11 05:03:10;;;;;;;1999.90;999.90;;;;;;;9.05;89.62;95958.75;5032559;28;20204;-70
2021/09/11 05:05:37;;;;;;;1999.90;999.90;;;;;;;9.09;90.03;95957.16;5032250;28;20666;-69
2021/09/11 05:08:06;;;;;;;1999.90;999.90;;;;;;;9.19;90.59;95956.31;5032381;28;20867;-70
2021/09/11 05:10:33;;;;;;;1999.90;999.90;;;;;;;9.19;90.54;95957.09;5032385;28;20660;-69
2021/09/11 05:13:00;;;;;;;1999.90;999.90;;;;;;;9.34;90.82;95954.34;5031919;28;20207;-69
2021/09/11 05:15:27;;;;;;;1999.90;999.90;;;;;;;9.38;91.12;95955.34;5032250;28;20202;-70
2021/09/11 05:17:55;;;;;;;1999.90;999.90;;;;;;;9.60;91.36;95956.72;5032153;28;20198;-70
2021/09/11 05:20:22;;;;;;;1999.90;999.90;;;;;;;9.77;91.75;95955.22;5032014;28;20198;-70
2021/09/11 05:22:49;;;;;;;1999.90;999.90;;;;;;;10.07;91.47;95948.91;5032235;28;20237;-71
2021/09/11 05:25:18;;;;;;;1999.90;999.90;;;;;;;10.47;86.46;95952.84;5031873;28;20292;-71
2021/09/11 05:27:45;;;;;;;1999.90;999.90;;;;;;;11.33;81.75;95948.16;5031701;28;20205;-71
2021/09/11 05:30:13;;;;;;;1999.90;999.90;;;;;;;12.23;78.15;95952.75;5032143;28;20202;-71
2021/09/11 05:32:41;;;;;;;1999.90;999.90;;;;;;;13.15;73.27;95947.09;5031720;28;20194;-70
2021/09/11 05:35:08;;;;;;;1999.90;999.90;;;;;;;13.76;70.46;95944.47;5031586;28;20284;-70
2021/09/11 05:37:36;;;;;;;1999.90;999.90;;;;;;;14.01;68.05;95955.31;5031683;28;20204;-70
2021/09/11 05:40:03;;;;;;;1999.90;999.90;;;;;;;14.04;68.51;95960.72;5031729;28;20677;-70
2021/09/11 05:42:35;;;;;;;1999.90;999.90;;;;;;;14.07;67.66;95957.50;5031358;28;20280;-70
2021/09/11 05:45:02;;;;;;;1999.90;999.90;;;;;;;14.11;67.21;95958.41;5031705;28;20201;-71
2021/09/11 05:47:29;;;;;;;1999.90;999.90;;;;;;;13.97;67.12;95965.63;5031470;28;20194;-71
2021/09/11 05:49:57;;;;;;;1999.90;999.90;;;;;;;13.91;68.80;95951.13;5031432;28;20202;-71
2021/09/11 05:52:24;;;;;;;1999.90;999.90;;;;;;;13.83;69.92;95953.72;5031503;28;20202;-70
2021/09/11 05:54:52;;;;;;;1999.90;999.90;;;;;;;13.96;68.36;95951.00;5031379;28;20190;-71
2021/09/11 05:57:19;;;;;;;1999.90;999.90;;;;;;;14.07;67.68;95954.88;5030315;28;20206;-71
2021/09/11 05:59:47;;;;;;;1999.90;999.90;;;;;;;13.98;68.67;95950.69;5031632;28;20198;-69
2021/09/11 06:02:14;;;;;;;1999.90;999.90;;;;;;;13.62;70.04;95943.81;5031129;28;20202;-70
2021/09/11 06:04:42;;;;;;;1999.90;999.90;;;;;;;13.89;69.03;95945.47;5030981;28;20233;-70
2021/09/11 06:07:09;;;;;;;1999.90;999.90;;;;;;;14.15;68.75;95946.28;5030783;28;20280;-70
2021/09/11 06:09:36;;;;;;;1999.90;999.90;;;;;;;14.41;66.13;95945.59;5031347;28;20255;-70
2021/09/11 06:12:05;;;;;;;1999.90;999.90;;;;;;;14.61;66.00;95939.75;5031002;28;20198;-71
2021/09/11 06:14:32;;;;;;;1999.90;999.90;;;;;;;14.88;64.54;95938.69;5031027;28;20620;-70
2021/09/11 06:17:01;;;;;;;1999.90;999.90;;;;;;;15.15;62.31;95938.34;5030943;28;20324;-71
2021/09/11 06:19:28;;;;;;;1999.90;999.90;;;;;;;15.34;60.82;95944.00;5030933;28;20674;-70
2021/09/11 06:21:55;;;;;;;1999.90;999.90;;;;;;;15.32;61.74;95942.78;5031246;28;20277;-70
2021/09/11 06:24:22;;;;;;;1999.90;999.90;;;;;;;15.62;61.81;95938.41;5031092;28;20225;-70
2021/09/11 06:26:49;;;;;;;1999.90;999.90;;;;;;;15.45;63.09;95945.22;5030923;28;20704;-71
2021/09/11 06:29:16;;;;;;;1999.90;999.90;;;;;;;15.49;65.29;95938.25;5030997;28;20201;-70
2021/09/11 06:31:44;;;;;;;1999.90;999.90;;;;;;;15.45;65.44;95939.97;5030718;28;20678;-70
2021/09/11 06:34:12;;;;;;;1999.90;999.90;;;;;;;15.64;65.83;95936.25;5030650;28;20202;-70
2021/09/11 06:36:40;;;;;;;1999.90;999.90;;;;;;;15.54;65.25;95936.59;5030563;28;20193;-70
2021/09/11 06:39:07;;;;;;;1999.90;999.90;;;;;;;15.60;64.79;95940.56;5030581;28;20239;-69
2021/09/11 06:41:34;;;;;;;1999.90;999.90;;;;;;;15.73;63.59;95934.38;5030877;28;20198;-70
2021/09/11 06:44:01;;;;;;;1999.90;999.90;;;;;;;16.10;61.77;95935.41;5030625;28;22180;-70
2021/09/11 06:46:28;;;;;;;1999.90;999.90;;;;;;;16.30;61.62;95942.53;5030455;28;20692;-71
2021/09/11 06:48:56;;;;;;;1999.90;999.90;;;;;;;16.41;62.58;95943.72;5030301;28;20202;-71
2021/09/11 06:51:24;;;;;;;1999.90;999.90;;;;;;;16.49;62.02;95939.50;5030651;28;20252;-71
2021/09/11 06:53:51;;;;;;;1999.90;999.90;;;;;;;16.55;60.10;95941.59;5030256;28;20248;-70
2021/09/11 06:56:19;;;;;;;1999.90;999.90;;;;;;;16.61;60.18;95944.84;5030159;28;20206;-70
2021/09/11 06:58:46;;;;;;;1999.90;999.90;;;;;;;16.73;60.42;95939.66;5030203;28;20674;-70
2021/09/11 07:01:13;;;;;;;1999.90;999.90;;;;;;;16.78;60.52;95942.09;5030304;28;20229;-71
2021/09/11 07:03:40;;;;;;;1999.90;999.90;;;;;;;16.86;60.53;95937.84;5030250;28;20225;-71
2021/09/11 07:06:08;;;;;;;1999.90;999.90;;;;;;;16.94;59.71;95935.16;5030035;28;20283;-69
2021/09/11 07:08:36;;;;;;;1999.90;999.90;;;;;;;17.29;58.33;95932.19;5029793;28;20190;-69
2021/09/11 07:11:03;;;;;;;1999.90;999.90;;;;;;;17.04;58.00;95941.84;5029878;28;20205;-69
2021/09/11 07:13:30;;;;;;;1999.90;999.90;;;;;;;17.17;57.50;95933.72;5029862;28;20581;-69
2021/09/11 07:15:58;;;;;;;1999.90;999.90;;;;;;;17.47;57.90;95931.72;5030198;28;20581;-69
2021/09/11 07:18:25;;;;;;;1999.90;999.90;;;;;;;17.58;57.49;95924.19;5029687;28;20670;-69
2021/09/11 07:20:52;;;;;;;1999.90;999.90;;;;;;;17.83;56.36;95915.22;5029791;28;20198;-69
2021/09/11 07:23:19;;;;;;;1999.90;999.90;;;;;;;18.12;54.63;95924.00;5029739;28;20198;-70
2021/09/11 07:25:48;;;;;;;1999.90;999.90;;;;;;;18.42;54.78;95912.88;5029637;28;20221;-69
2021/09/11 07:28:15;;;;;;;1999.90;999.90;;;;;;;18.52;54.66;95930.06;5029542;28;20237;-70
2021/09/11 07:30:42;;;;;;;1999.90;999.90;;;;;;;18.25;54.53;95920.25;5029708;28;20197;-69
2021/09/11 07:33:09;;;;;;;1999.90;999.90;;;;;;;18.19;55.04;95913.66;5029172;28;20208;-70
2021/09/11 07:35:36;;;;;;;1999.90;999.90;;;;;;;18.53;53.48;95915.78;5030007;28;20206;-69
2021/09/11 07:38:04;;;;;;;1999.90;999.90;;;;;;;18.61;52.42;95912.31;5029428;28;20707;-69
2021/09/11 07:40:31;;;;;;;1999.90;999.90;;;;;;;18.78;52.63;95908.63;5029799;28;20259;-69
2021/09/11 07:42:59;;;;;;;1999.90;999.90;;;;;;;18.80;52.67;95914.31;5029305;28;20205;-69
2021/09/11 07:45:26;;;;;;;1999.90;999.90;;;;;;;18.81;53.60;95908.72;5029638;28;20229;-69
2021/09/11 07:47:54;;;;;;;1999.90;999.90;;;;;;;18.92;52.42;95901.88;5029329;28;20212;-70
2021/09/11 07:50:25;;;;;;;1999.90;999.90;;;;;;;18.87;52.27;95902.13;5029762;28;20197;-69
2021/09/11 07:52:53;;;;;;;1999.90;999.90;;;;;;;19.00;52.36;95897.56;5029306;28;20181;-69
2021/09/11 07:55:20;;;;;;;1999.90;999.90;;;;;;;19.37;52.82;95895.50;5029453;28;20198;-70
2021/09/11 07:57:48;;;;;;;1999.90;999.90;;;;;;;19.50;51.24;95891.69;5029823;28;20335;-69
2021/09/11 08:00:18;;;;;;;1999.90;999.90;;;;;;;19.55;52.53;95888.81;5029806;28;20201;-69
2021/09/11 08:02:45;;;;;;;1999.90;999.90;;;;;;;19.84;50.50;95887.59;5029238;28;20202;-70
2021/09/11 08:05:12;;;;;;;1999.90;999.90;;;;;;;20.11;50.60;95893.84;5029064;28;20222;-71
2021/09/11 08:07:39;;;;;;;1999.90;999.90;;;;;;;20.22;50.17;95889.56;5028892;28;20317;-70
2021/09/11 08:10:08;;;;;;;1999.90;999.90;;;;;;;20.41;48.48;95887.00;5029055;28;20209;-71
2021/09/11 08:12:35;;;;;;;1999.90;999.90;;;;;;;20.55;49.47;95884.63;5029103;28;20198;-71
2021/09/11 08:15:03;;;;;;;1999.90;999.90;;;;;;;20.34;50.10;95878.91;5029519;28;20829;-70
2021/09/11 08:17:32;;;;;;;1999.90;999.90;;;;;;;19.93;50.27;95871.56;5028902;28;20194;-69
2021/09/11 08:19:59;;;;;;;1999.90;999.90;;;;;;;20.31;48.92;95873.56;5028139;28;20210;-69
2021/09/11 08:22:27;;;;;;;1999.90;999.90;;;;;;;20.68;50.10;95863.34;5029014;28;20221;-69
2021/09/11 08:24:56;;;;;;;1999.90;999.90;;;;;;;20.95;47.17;95863.13;5028836;28;20811;-70
2021/09/11 08:27:23;;;;;;;1999.90;999.90;;;;;;;21.09;47.12;95862.63;5028930;28;20201;-70
2021/09/11 08:29:51;;;;;;;1999.90;999.90;;;;;;;21.41;47.69;95863.97;5028752;28;20205;-69
2021/09/11 08:32:18;;;;;;;1999.90;999.90;;;;;;;21.70;45.63;95853.81;5028872;28;20673;-70
2021/09/11 08:34:47;;;;;;;1999.90;999.90;;;;;;;21.55;44.23;95852.84;5028753;28;20708;-70
2021/09/11 08:37:14;;;;;;;1999.90;999.90;;;;;;;21.40;46.16;95851.84;5028798;28;20206;-70
2021/09/11 08:39:41;;;;;;;1999.90;999.90;;;;;;;21.66;46.72;95851.13;5028778;28;20288;-69
2021/09/11 08:42:11;;;;;;;1999.90;999.90;;;;;;;21.87;44.28;95853.31;5028763;28;20197;-70
2021/09/11 08:44:38;;;;;;;1999.90;999.90;;;;;;;21.93;45.59;95846.59;5028650;28;20205;-70
2021/09/11 08:47:06;;;;;;;1999.90;999.90;;;;;;;22.13;44.98;95845.38;5028893;28;20297;-70
2021/09/11 08:49:33;;;;;;;1999.90;999.90;;;;;;;22.13;44.39;95840.09;5029069;28;20208;-70
2021/09/11 08:52:04;;;;;;;1999.90;999.90;;;;;;;22.38;44.46;95842.28;5029041;28;20244;-70
2021/09/11 08:54:32;;;;;;;1999.90;999.90;;;;;;;22.48;41.07;95841.66;5028976;28;20186;-71
2021/09/11 08:56:59;;;;;;;1999.90;999.90;;;;;;;22.73;42.33;95834.78;5028984;28;20202;-71
2021/09/11 08:59:27;;;;;;;1999.90;999.90;;;;;;;22.80;41.24;95840.16;5028959;28;20669;-72
2021/09/11 09:02:06;;;;;;;1999.90;999.90;;;;;;;22.88;40.67;95831.16;5028659;28;20213;-69
2021/09/11 09:04:45;;;;;;;1999.90;999.90;;;;;;;23.03;38.44;95835.47;5028511;28;20638;-69
2021/09/11 09:07:28;;;;;;;1999.90;999.90;;;;;;;23.03;37.49;95832.03;5028477;28;20248;-71
2021/09/11 09:09:58;;;;;;;1999.90;999.90;;;;;;;23.11;37.90;95823.78;5028435;28;20549;-70
2021/09/11 09:12:25;;;;;;;1999.90;999.90;;;;;;;23.22;39.13;95828.41;5028728;28;20240;-72
2021/09/11 09:15:04;;;;;;;1999.90;999.90;;;;;;;23.20;37.26;95820.09;5028350;28;20201;-70
2021/09/11 09:17:39;;;;;;;1999.90;999.90;;;;;;;23.49;37.30;95822.63;5028557;28;20240;-69
2021/09/11 09:20:11;;;;;;;1999.90;999.90;;;;;;;23.38;37.28;95816.44;5028253;28;20202;-69
2021/09/11 09:22:40;;;;;;;1999.90;999.90;;;;;;;23.57;36.05;95812.81;5028305;28;20256;-69
2021/09/11 09:25:20;;;;;;;1999.90;999.90;;;;;;;23.83;35.92;95815.28;5028455;28;20221;-68
2021/09/11 09:27:51;;;;;;;1999.90;999.90;;;;;;;23.95;34.32;95817.63;5028845;28;20182;-68
2021/09/11 09:30:24;;;;;;;1999.90;999.90;;;;;;;24.13;34.42;95817.72;5028566;28;20212;-69
2021/09/11 09:32:52;;;;;;;1999.90;999.90;;;;;;;23.98;34.17;95811.56;5031058;28;20202;-69
2021/09/11 09:35:24;;;;;;;1999.90;999.90;;;;;;;24.11;35.11;95814.66;5031958;28;20205;-70
2021/09/11 09:37:57;;;;;;;1999.90;999.90;;;;;;;24.31;33.76;95810.59;5031757;28;20693;-69
2021/09/11 09:40:43;;;;;;;1999.90;999.90;;;;;;;24.40;32.58;95795.09;5031903;28;20198;-69
2021/09/11 09:43:11;;;;;;;1999.90;999.90;;;;;;;24.39;33.99;95798.13;5031668;28;20228;-69
2021/09/11 09:45:39;;;;;;;1999.90;999.90;;;;;;;24.73;32.93;95793.28;5031509;28;20226;-69
2021/09/11 09:48:09;;;;;;;1999.90;999.90;;;;;;;24.72;33.34;95789.09;5031637;28;20533;-70
2021/09/11 09:50:38;;;;;;;1999.90;999.90;;;;;;;24.90;34.08;95787.28;5031504;28;20186;-69
2021/09/11 09:53:09;;;;;;;1999.90;999.90;;;;;;;24.81;31.63;95789.47;5031419;28;20204;-69
2021/09/11 09:55:39;;;;;;;1999.90;999.90;;;;;;;24.82;31.47;95789.13;5031464;28;20190;-69
2021/09/11 09:58:08;;;;;;;1999.90;999.90;;;;;;;25.18;32.24;95784.63;5031620;28;20206;-68
2021/09/11 10:00:35;;;;;;;1999.90;999.90;;;;;;;25.26;31.82;95788.03;5031193;28;20196;-69
2021/09/11 10:03:03;;;;;;;1999.90;999.90;;;;;;;25.22;31.13;95776.63;5031245;28;20201;-70
2021/09/11 10:05:31;;;;;;;1999.90;999.90;;;;;;;25.31;31.22;95779.69;5031293;28;20228;-69
2021/09/11 10:08:06;;;;;;;1999.90;999.90;;;;;;;25.31;30.24;95769.03;5030946;28;20237;-70
2021/09/11 10:10:37;;;;;;;1999.90;999.90;;;;;;;24.91;31.42;95774.75;5031217;28;20270;-69
2021/09/11 10:13:12;;;;;;;1999.90;999.90;;;;;;;25.24;30.61;95771.72;5031329;28;20269;-69
2021/09/11 10:15:51;;;;;;;1999.90;999.90;;;;;;;25.58;31.45;95762.19;5031271;28;20185;-69
2021/09/11 10:18:41;;;;;;;1999.90;999.90;;;;;;;25.81;30.60;95764.41;5030988;28;20196;-69
2021/09/11 10:21:35;;;;;;;1999.90;999.90;;;;;;;25.88;30.48;95766.31;5030826;28;20206;-69
2021/09/11 10:24:28;;;;;;;1999.90;999.90;;;;;;;25.95;27.56;95772.38;5030795;28;20194;-70
2021/09/11 10:26:59;;;;;;;1999.90;999.90;;;;;;;25.69;27.41;95762.19;5030670;28;20302;-70
2021/09/11 10:29:49;;;;;;;1999.90;999.90;;;;;;;25.76;27.25;95764.06;5030744;28;20190;-70
2021/09/11 10:32:41;;;;;;;1999.90;999.90;;;;;;;25.66;26.19;95761.03;5030852;28;20551;-69
2021/09/11 10:35:11;;;;;;;1999.90;999.90;;;;;;;25.76;22.44;95758.72;5030707;28;20193;-70
2021/09/11 10:37:41;;;;;;;1999.90;999.90;;;;;;;25.73;25.50;95756.84;5030851;28;20198;-70
2021/09/11 10:40:32;;;;;;;1999.90;999.90;;;;;;;25.62;24.92;95754.97;5028221;28;20589;-70
2021/09/11 10:43:17;;;;;;;1999.90;999.90;;;;;;;25.85;25.37;95751.88;5022723;28;20686;-70
2021/09/11 10:45:47;;;;;;;1999.90;999.90;;;;;;;25.90;25.40;95758.72;5030465;28;20281;-70
2021/09/11 10:48:32;;;;;;;1999.90;999.90;;;;;;;26.08;24.40;95746.06;5030558;28;20292;-69
2021/09/11 10:51:11;;;;;;;1999.90;999.90;;;;;;;26.21;24.50;95744.50;5030452;28;20225;-70
2021/09/11 10:53:39;;;;;;;1999.90;999.90;;;;;;;25.96;24.81;95738.50;5030695;28;20186;-69
2021/09/11 10:56:23;;;;;;;1999.90;999.90;;;;;;;25.86;25.41;95734.72;5028864;28;20202;-70
2021/09/11 10:59:23;;;;;;;1999.90;999.90;;;;;;;25.97;25.48;95724.03;5028901;28;20222;-70
2021/09/11 11:02:06;;;;;;;1999.90;999.90;;;;;;;26.27;25.06;95724.31;5030401;28;20232;-70
2021/09/11 11:04:35;;;;;;;1999.90;999.90;;;;;;;26.28;24.23;95720.50;5030140;28;20189;-70